createdAt,value
2023-02-22T00:00:32.271Z,7.10
2023-02-22T00:01:32.174Z,7.10
2023-02-22T00:02:32.189Z,7.13
2023-02-22T00:03:32.183Z,7.09
2023-02-22T00:04:32.157Z,7.06
2023-02-22T00:05:32.145Z,7.03
2023-02-22T00:06:32.165Z,6.97
2023-02-22T00:07:32.126Z,6.85
2023-02-22T00:08:32.179Z,6.77
2023-02-22T00:09:32.067Z,6.62
2023-02-22T00:10:32.065Z,6.52
2023-02-22T00:11:32.110Z,6.43
2023-02-22T00:12:32.079Z,6.38
2023-02-22T00:13:32.022Z,6.30
2023-02-22T00:14:32.021Z,6.21
2023-02-22T00:15:32.020Z,6.15
2023-02-22T00:16:32.084Z,6.06
2023-02-22T00:17:32.028Z,6.00
2023-02-22T00:18:32.087Z,5.97
2023-02-22T00:19:32.098Z,5.85
2023-02-22T00:20:31.954Z,5.78
2023-02-22T00:21:31.940Z,5.74
2023-02-22T00:22:31.930Z,5.64
2023-02-22T00:23:32.062Z,5.60
2023-02-22T00:24:31.918Z,5.53
2023-02-22T00:25:31.898Z,5.46
2023-02-22T00:26:31.884Z,5.40
2023-02-22T00:27:31.850Z,5.35
2023-02-22T00:28:31.825Z,5.33
2023-02-22T00:29:31.848Z,5.24
2023-02-22T00:30:31.896Z,5.18
2023-02-22T00:31:31.835Z,5.09
2023-02-22T00:32:31.835Z,5.07
2023-02-22T00:33:31.806Z,5.04
2023-02-22T00:34:31.746Z,5.03
2023-02-22T00:35:31.787Z,5.00
2023-02-22T00:36:31.719Z,4.92
2023-02-22T00:37:31.730Z,4.86
2023-02-22T00:38:31.692Z,4.80
2023-02-22T00:39:31.689Z,4.77
2023-02-22T00:40:31.721Z,4.72
2023-02-22T00:41:31.750Z,4.63
2023-02-22T00:42:31.708Z,4.59
2023-02-22T00:43:31.685Z,4.58
2023-02-22T00:44:31.638Z,4.47
2023-02-22T00:45:31.670Z,4.48
2023-02-22T00:46:31.700Z,4.41
2023-02-22T00:47:31.577Z,4.36
2023-02-22T00:48:31.737Z,4.30
2023-02-22T00:49:31.552Z,4.29
2023-02-22T00:50:31.561Z,4.26
2023-02-22T00:51:31.545Z,4.20
2023-02-22T00:52:31.571Z,4.15
2023-02-22T00:53:31.515Z,4.15
2023-02-22T00:54:31.550Z,4.14
2023-02-22T00:55:31.494Z,4.08
2023-02-22T00:56:31.502Z,4.04
2023-02-22T00:57:31.559Z,4.00
2023-02-22T00:58:31.472Z,3.97
2023-02-22T00:59:31.433Z,3.90
2023-02-22T01:00:31.422Z,3.83
2023-02-22T01:01:31.439Z,3.79
2023-02-22T01:02:31.393Z,3.75
2023-02-22T01:03:31.384Z,3.70
2023-02-22T01:04:31.400Z,3.68
2023-02-22T01:05:31.351Z,3.68
2023-02-22T01:06:31.337Z,3.68
2023-02-22T01:07:31.348Z,3.70
2023-02-22T01:08:31.318Z,3.75
2023-02-22T01:09:31.317Z,3.79
2023-02-22T01:10:31.320Z,3.79
2023-02-22T01:11:31.328Z,3.75
2023-02-22T01:12:31.276Z,3.73
2023-02-22T01:13:31.256Z,3.73
2023-02-22T01:14:31.243Z,3.70
2023-02-22T01:15:31.268Z,3.69
2023-02-22T01:16:31.217Z,3.66
2023-02-22T01:17:31.193Z,3.62
2023-02-22T01:18:31.205Z,3.61
2023-02-22T01:19:31.203Z,3.57
2023-02-22T01:20:31.223Z,3.52
2023-02-22T01:21:31.127Z,3.50
2023-02-22T01:22:31.183Z,3.47
2023-02-22T01:23:31.106Z,3.42
2023-02-22T01:24:31.089Z,3.40
2023-02-22T01:25:31.092Z,3.36
2023-02-22T01:26:31.080Z,3.36
2023-02-22T01:27:31.084Z,3.39
2023-02-22T01:28:31.085Z,3.36
2023-02-22T01:29:31.086Z,3.33
2023-02-22T01:30:31.132Z,3.31
2023-02-22T01:31:31.047Z,3.31
2023-02-22T01:32:30.978Z,3.31
2023-02-22T01:33:31.012Z,3.28
2023-02-22T01:34:31.016Z,3.31
2023-02-22T01:35:32.142Z,3.24
2023-02-22T01:36:30.960Z,3.23
2023-02-22T01:37:30.953Z,3.23
2023-02-22T01:38:30.907Z,3.18
2023-02-22T01:39:30.899Z,3.15
2023-02-22T01:40:30.901Z,3.14
2023-02-22T01:41:30.901Z,3.13
2023-02-22T01:42:30.852Z,3.14
2023-02-22T01:43:30.936Z,3.11
2023-02-22T01:44:30.889Z,3.14
2023-02-22T01:45:30.947Z,3.08
2023-02-22T01:46:30.795Z,3.08
2023-02-22T01:47:30.781Z,3.11
2023-02-22T01:48:30.766Z,3.14
2023-02-22T01:49:30.753Z,3.14
2023-02-22T01:50:30.792Z,3.17
2023-02-22T01:51:30.784Z,3.20
2023-02-22T01:52:30.724Z,3.20
2023-02-22T01:53:30.703Z,3.24
2023-02-22T01:54:30.700Z,3.28
2023-02-22T01:55:30.671Z,3.29
2023-02-22T01:56:30.730Z,3.29
2023-02-22T01:57:30.692Z,3.26
2023-02-22T01:58:30.629Z,3.29
2023-02-22T01:59:30.629Z,3.29
2023-02-22T02:00:30.602Z,3.29
2023-02-22T02:01:30.612Z,3.32
2023-02-22T02:02:30.629Z,3.35
2023-02-22T02:03:30.576Z,3.39
2023-02-22T02:04:30.603Z,3.52
2023-02-22T02:05:30.563Z,3.76
2023-02-22T02:06:30.563Z,3.91
2023-02-22T02:07:30.554Z,4.06
2023-02-22T02:08:30.533Z,4.12
2023-02-22T02:09:30.486Z,4.14
2023-02-22T02:10:30.466Z,4.15
2023-02-22T02:11:30.484Z,4.20
2023-02-22T02:12:30.461Z,4.23
2023-02-22T02:13:30.459Z,4.44
2023-02-22T02:14:30.416Z,4.45
2023-02-22T02:15:30.405Z,4.54
2023-02-22T02:16:30.421Z,4.62
2023-02-22T02:17:30.382Z,4.66
2023-02-22T02:18:30.625Z,4.66
2023-02-22T02:19:30.363Z,4.67
2023-02-22T02:20:30.365Z,4.77
2023-02-22T02:21:30.331Z,4.78
2023-02-22T02:22:30.324Z,4.78
2023-02-22T02:23:30.298Z,4.85
2023-02-22T02:24:30.391Z,4.78
2023-02-22T02:25:30.307Z,4.84
2023-02-22T02:26:30.264Z,4.88
2023-02-22T02:27:30.279Z,4.89
2023-02-22T02:28:30.288Z,4.89
2023-02-22T02:29:30.252Z,4.92
2023-02-22T02:30:30.233Z,4.97
2023-02-22T02:31:30.246Z,5.00
2023-02-22T02:32:30.180Z,5.00
2023-02-22T02:33:30.189Z,5.04
2023-02-22T02:34:30.182Z,5.09
2023-02-22T02:35:30.180Z,5.07
2023-02-22T02:36:30.152Z,5.10
2023-02-22T02:37:30.109Z,5.10
2023-02-22T02:38:30.186Z,5.12
2023-02-22T02:39:30.152Z,5.17
2023-02-22T02:40:30.149Z,5.15
2023-02-22T02:41:30.081Z,5.21
2023-02-22T02:42:30.048Z,5.24
2023-02-22T02:43:30.032Z,5.22
2023-02-22T02:44:30.069Z,5.27
2023-02-22T02:45:30.079Z,5.27
2023-02-22T02:46:30.001Z,5.24
2023-02-22T02:47:30.040Z,5.31
2023-02-22T02:48:30.033Z,5.31
2023-02-22T02:49:29.980Z,5.33
2023-02-22T02:50:29.970Z,5.33
2023-02-22T02:51:30.044Z,5.38
2023-02-22T02:52:29.912Z,5.40
2023-02-22T02:53:29.926Z,5.45
2023-02-22T02:54:29.895Z,5.48
2023-02-22T02:55:29.901Z,5.43
2023-02-22T02:56:30.084Z,5.48
2023-02-22T02:57:29.872Z,5.46
2023-02-22T02:58:29.854Z,5.48
2023-02-22T02:59:29.880Z,5.51
2023-02-22T03:00:29.900Z,5.54
2023-02-22T03:01:29.862Z,5.57
2023-02-22T03:02:29.806Z,5.56
2023-02-22T03:03:29.807Z,5.58
2023-02-22T03:04:29.755Z,5.58
2023-02-22T03:05:29.764Z,5.63
2023-02-22T03:06:29.755Z,5.63
2023-02-22T03:07:29.725Z,5.65
2023-02-22T03:08:29.707Z,5.63
2023-02-22T03:09:29.697Z,5.72
2023-02-22T03:10:29.723Z,5.68
2023-02-22T03:11:29.667Z,5.74
2023-02-22T03:12:37.968Z,5.74
2023-02-22T03:13:29.655Z,5.72
2023-02-22T03:14:29.644Z,5.75
2023-02-22T03:15:29.626Z,5.76
2023-02-22T03:16:29.719Z,5.74
2023-02-22T03:17:29.621Z,5.78
2023-02-22T03:18:29.594Z,5.75
2023-02-22T03:19:29.588Z,5.79
2023-02-22T03:20:29.572Z,5.75
2023-02-22T03:21:29.538Z,5.76
2023-02-22T03:22:38.698Z,5.79
2023-02-22T03:23:38.340Z,5.76
2023-02-22T03:24:37.433Z,5.78
2023-02-22T03:25:37.024Z,5.79
2023-02-22T03:26:37.032Z,5.81
2023-02-22T03:27:39.173Z,5.82
2023-02-22T03:28:29.474Z,5.82
2023-02-22T03:29:36.474Z,5.83
2023-02-22T03:30:37.010Z,5.81
2023-02-22T03:31:29.476Z,5.85
2023-02-22T03:32:29.400Z,5.82
2023-02-22T03:33:29.410Z,5.83
2023-02-22T03:34:29.491Z,5.81
2023-02-22T03:35:29.430Z,5.85
2023-02-22T03:36:29.388Z,5.81
2023-02-22T03:37:29.418Z,5.81
2023-02-22T03:38:29.472Z,5.83
2023-02-22T03:39:29.323Z,5.82
2023-02-22T03:40:29.324Z,5.81
2023-02-22T03:41:29.330Z,5.81
2023-02-22T03:42:29.274Z,5.82
2023-02-22T03:43:29.267Z,5.83
2023-02-22T03:44:29.270Z,5.81
2023-02-22T03:45:29.237Z,5.82
2023-02-22T03:46:29.309Z,5.78
2023-02-22T03:47:29.216Z,5.83
2023-02-22T03:48:29.222Z,5.82
2023-02-22T03:49:29.212Z,5.81
2023-02-22T03:50:29.178Z,5.79
2023-02-22T03:51:29.185Z,5.82
2023-02-22T03:52:29.154Z,5.82
2023-02-22T03:53:29.149Z,5.81
2023-02-22T03:54:29.133Z,5.85
2023-02-22T03:55:29.133Z,5.82
2023-02-22T03:56:29.132Z,5.82
2023-02-22T03:57:29.121Z,5.82
2023-02-22T03:58:29.073Z,5.85
2023-02-22T03:59:29.090Z,5.89
2023-02-22T04:00:29.194Z,5.89
2023-02-22T04:01:29.053Z,5.85
2023-02-22T04:02:29.047Z,5.83
2023-02-22T04:03:29.018Z,5.85
2023-02-22T04:04:29.105Z,5.86
2023-02-22T04:05:29.013Z,5.83
2023-02-22T04:06:29.001Z,5.82
2023-02-22T04:07:29.016Z,5.76
2023-02-22T04:08:29.065Z,5.74
2023-02-22T04:09:29.006Z,5.76
2023-02-22T04:10:28.949Z,5.75
2023-02-22T04:11:28.914Z,5.74
2023-02-22T04:12:28.939Z,5.75
2023-02-22T04:13:28.944Z,5.74
2023-02-22T04:14:29.719Z,5.65
2023-02-22T04:15:28.896Z,5.68
2023-02-22T04:16:28.858Z,5.72
2023-02-22T04:17:28.860Z,5.64
2023-02-22T04:18:28.837Z,5.63
2023-02-22T04:19:28.827Z,5.63
2023-02-22T04:20:28.835Z,5.54
2023-02-22T04:21:28.826Z,5.56
2023-02-22T04:22:28.788Z,5.46
2023-02-22T04:23:28.777Z,5.46
2023-02-22T04:24:30.523Z,5.40
2023-02-22T04:25:28.766Z,5.36
2023-02-22T04:26:28.752Z,5.38
2023-02-22T04:27:28.724Z,5.35
2023-02-22T04:28:28.746Z,5.28
2023-02-22T04:29:28.783Z,5.28
2023-02-22T04:30:28.750Z,5.25
2023-02-22T04:31:28.732Z,5.17
2023-02-22T04:32:28.682Z,5.10
2023-02-22T04:33:28.653Z,5.06
2023-02-22T04:34:28.651Z,5.06
2023-02-22T04:35:28.645Z,5.06
2023-02-22T04:36:28.621Z,5.03
2023-02-22T04:37:28.592Z,5.00
2023-02-22T04:38:28.617Z,5.03
2023-02-22T04:39:28.647Z,4.99
2023-02-22T04:40:28.565Z,4.99
2023-02-22T04:41:28.569Z,5.00
2023-02-22T04:42:28.573Z,5.00
2023-02-22T04:43:28.543Z,4.97
2023-02-22T04:44:28.512Z,4.94
2023-02-22T04:45:28.494Z,4.89
2023-02-22T04:46:28.504Z,4.88
2023-02-22T04:47:28.481Z,4.84
2023-02-22T04:48:28.487Z,4.86
2023-02-22T04:49:28.448Z,4.86
2023-02-22T04:50:28.442Z,4.86
2023-02-22T04:51:28.413Z,4.88
2023-02-22T04:52:28.432Z,4.85
2023-02-22T04:53:28.422Z,4.86
2023-02-22T04:54:28.409Z,4.85
2023-02-22T04:55:28.377Z,4.86
2023-02-22T04:56:28.373Z,4.80
2023-02-22T04:57:28.364Z,4.80
2023-02-22T04:58:28.341Z,4.84
2023-02-22T04:59:28.307Z,4.82
2023-02-22T05:00:28.324Z,4.85
2023-02-22T05:01:28.297Z,4.80
2023-02-22T05:02:28.312Z,4.82
2023-02-22T05:03:28.288Z,4.77
2023-02-22T05:04:28.296Z,4.77
2023-02-22T05:05:28.262Z,4.75
2023-02-22T05:06:28.231Z,4.80
2023-02-22T05:07:28.260Z,4.75
2023-02-22T05:08:28.200Z,4.75
2023-02-22T05:09:28.210Z,4.75
2023-02-22T05:10:28.204Z,4.73
2023-02-22T05:11:28.199Z,4.70
2023-02-22T05:12:28.160Z,4.72
2023-02-22T05:13:28.131Z,4.77
2023-02-22T05:14:28.214Z,4.77
2023-02-22T05:15:28.115Z,4.78
2023-02-22T05:16:28.116Z,4.82
2023-02-22T05:17:28.106Z,4.82
2023-02-22T05:18:28.093Z,4.82
2023-02-22T05:19:28.067Z,4.85
2023-02-22T05:20:28.089Z,4.85
2023-02-22T05:21:28.058Z,4.88
2023-02-22T05:22:28.019Z,4.86
2023-02-22T05:23:28.021Z,4.86
2023-02-22T05:24:28.038Z,4.85
2023-02-22T05:25:27.986Z,4.86
2023-02-22T05:26:27.990Z,4.85
2023-02-22T05:27:27.958Z,4.89
2023-02-22T05:28:27.969Z,4.89
2023-02-22T05:29:27.943Z,4.91
2023-02-22T05:30:27.988Z,4.89
2023-02-22T05:31:27.981Z,4.94
2023-02-22T05:32:27.900Z,4.94
2023-02-22T05:33:27.880Z,4.94
2023-02-22T05:34:27.905Z,4.96
2023-02-22T05:35:27.852Z,4.96
2023-02-22T05:36:27.836Z,5.00
2023-02-22T05:37:27.895Z,4.97
2023-02-22T05:38:27.858Z,4.96
2023-02-22T05:39:27.799Z,4.94
2023-02-22T05:40:27.799Z,4.94
2023-02-22T05:41:27.782Z,4.97
2023-02-22T05:42:27.778Z,4.97
2023-02-22T05:43:27.739Z,4.97
2023-02-22T05:44:27.739Z,4.99
2023-02-22T05:45:27.728Z,5.02
2023-02-22T05:46:27.764Z,5.04
2023-02-22T05:47:27.701Z,5.02
2023-02-22T05:48:27.727Z,5.03
2023-02-22T05:49:27.663Z,5.03
2023-02-22T05:50:27.658Z,4.99
2023-02-22T05:51:34.650Z,4.99
2023-02-22T05:52:27.626Z,4.99
2023-02-22T05:53:36.298Z,4.99
2023-02-22T05:54:35.135Z,4.96
2023-02-22T05:55:35.094Z,4.94
2023-02-22T05:56:27.617Z,4.99
2023-02-22T05:57:35.080Z,4.96
2023-02-22T05:58:27.561Z,4.92
2023-02-22T05:59:27.540Z,4.92
2023-02-22T06:00:27.542Z,4.85
2023-02-22T06:01:27.503Z,4.85
2023-02-22T06:02:27.498Z,4.86
2023-02-22T06:03:27.477Z,4.86
2023-02-22T06:04:27.477Z,4.86
2023-02-22T06:05:27.479Z,4.89
2023-02-22T06:06:27.487Z,4.88
2023-02-22T06:07:27.507Z,4.91
2023-02-22T06:08:27.426Z,4.88
2023-02-22T06:09:27.401Z,4.91
2023-02-22T06:10:27.410Z,4.91
2023-02-22T06:11:27.446Z,4.86
2023-02-22T06:12:27.378Z,4.84
2023-02-22T06:13:27.363Z,4.85
2023-02-22T06:14:27.360Z,4.86
2023-02-22T06:15:27.334Z,4.85
2023-02-22T06:16:27.360Z,4.86
2023-02-22T06:17:27.334Z,4.85
2023-02-22T06:18:27.304Z,4.86
2023-02-22T06:19:27.283Z,4.88
2023-02-22T06:20:27.282Z,4.89
2023-02-22T06:21:27.256Z,4.86
2023-02-22T06:22:27.285Z,4.89
2023-02-22T06:23:27.223Z,4.89
2023-02-22T06:24:27.237Z,4.88
2023-02-22T06:25:27.213Z,4.86
2023-02-22T06:26:27.218Z,4.78
2023-02-22T06:27:27.263Z,4.84
2023-02-22T06:28:27.199Z,4.78
2023-02-22T06:29:27.194Z,4.82
2023-02-22T06:30:27.225Z,4.77
2023-02-22T06:31:27.220Z,4.80
2023-02-22T06:32:27.158Z,4.78
2023-02-22T06:33:27.126Z,4.77
2023-02-22T06:34:27.108Z,4.75
2023-02-22T06:35:27.147Z,4.70
2023-02-22T06:36:27.084Z,4.66
2023-02-22T06:37:27.050Z,4.69
2023-02-22T06:38:27.060Z,4.70
2023-02-22T06:39:27.087Z,4.73
2023-02-22T06:40:27.053Z,4.72
2023-02-22T06:41:27.005Z,4.69
2023-02-22T06:42:27.040Z,4.67
2023-02-22T06:43:26.993Z,4.65
2023-02-22T06:44:26.989Z,4.62
2023-02-22T06:45:27.004Z,4.60
2023-02-22T06:46:26.933Z,4.62
2023-02-22T06:47:26.933Z,4.63
2023-02-22T06:48:26.919Z,4.63
2023-02-22T06:49:26.918Z,4.62
2023-02-22T06:50:26.985Z,4.63
2023-02-22T06:51:26.886Z,4.69
2023-02-22T06:52:26.879Z,4.67
2023-02-22T06:53:26.858Z,4.66
2023-02-22T06:54:26.833Z,4.67
2023-02-22T06:55:26.856Z,4.69
2023-02-22T06:56:26.820Z,4.66
2023-02-22T06:57:26.808Z,4.66
2023-02-22T06:58:26.770Z,4.66
2023-02-22T06:59:26.788Z,4.66
2023-02-22T07:00:26.756Z,4.65
2023-02-22T07:01:26.756Z,4.62
2023-02-22T07:02:26.730Z,4.63
2023-02-22T07:03:26.738Z,4.63
2023-02-22T07:04:26.691Z,4.63
2023-02-22T07:05:26.710Z,4.69
2023-02-22T07:06:26.676Z,4.72
2023-02-22T07:07:26.651Z,4.70
2023-02-22T07:08:26.687Z,4.69
2023-02-22T07:09:26.632Z,4.70
2023-02-22T07:10:26.625Z,4.75
2023-02-22T07:11:26.625Z,4.77
2023-02-22T07:12:26.603Z,4.77
2023-02-22T07:13:26.696Z,4.75
2023-02-22T07:14:26.629Z,4.77
2023-02-22T07:15:26.596Z,4.80
2023-02-22T07:16:26.599Z,4.84
2023-02-22T07:17:26.572Z,4.85
2023-02-22T07:18:26.520Z,4.85
2023-02-22T07:19:26.513Z,4.86
2023-02-22T07:20:26.528Z,4.84
2023-02-22T07:21:26.510Z,4.85
2023-02-22T07:22:26.461Z,4.86
2023-02-22T07:23:26.461Z,4.86
2023-02-22T07:24:26.493Z,4.88
2023-02-22T07:25:26.434Z,4.86
2023-02-22T07:26:26.416Z,4.89
2023-02-22T07:27:26.408Z,4.92
2023-02-22T07:28:26.415Z,4.92
2023-02-22T07:29:26.402Z,4.96
2023-02-22T07:30:26.430Z,4.92
2023-02-22T07:31:28.268Z,4.88
2023-02-22T07:32:26.467Z,4.88
2023-02-22T07:33:26.326Z,4.86
2023-02-22T07:34:26.321Z,4.85
2023-02-22T07:35:26.317Z,4.85
2023-02-22T07:36:26.289Z,4.86
2023-02-22T07:37:26.277Z,4.86
2023-02-22T07:38:26.279Z,4.88
2023-02-22T07:39:26.257Z,4.91
2023-02-22T07:40:26.382Z,4.89
2023-02-22T07:41:26.229Z,4.92
2023-02-22T07:42:26.289Z,4.91
2023-02-22T07:43:26.191Z,4.94
2023-02-22T07:44:26.183Z,4.99
2023-02-22T07:45:26.240Z,5.03
2023-02-22T07:46:26.197Z,5.06
2023-02-22T07:47:26.150Z,5.07
2023-02-22T07:48:26.134Z,5.12
2023-02-22T07:49:26.098Z,5.17
2023-02-22T07:50:26.236Z,5.13
2023-02-22T07:51:26.148Z,5.18
2023-02-22T07:52:26.082Z,5.13
2023-02-22T07:53:28.460Z,5.21
2023-02-22T07:54:26.051Z,5.21
2023-02-22T07:55:26.029Z,5.21
2023-02-22T07:56:26.097Z,5.21
2023-02-22T07:57:26.019Z,5.21
2023-02-22T07:58:26.089Z,5.15
2023-02-22T07:59:25.994Z,5.18
2023-02-22T08:00:26.072Z,5.18
2023-02-22T08:01:25.949Z,5.18
2023-02-22T08:02:25.985Z,5.15
2023-02-22T08:03:26.031Z,5.12
2023-02-22T08:04:25.943Z,5.13
2023-02-22T08:05:25.910Z,5.15
2023-02-22T08:06:25.937Z,5.21
2023-02-22T08:07:25.918Z,5.25
2023-02-22T08:08:25.933Z,5.27
2023-02-22T08:09:25.854Z,5.22
2023-02-22T08:10:25.853Z,5.18
2023-02-22T08:11:25.867Z,5.22
2023-02-22T08:12:25.825Z,5.25
2023-02-22T08:13:25.819Z,5.31
2023-02-22T08:14:25.783Z,5.27
2023-02-22T08:15:25.817Z,5.33
2023-02-22T08:16:25.792Z,5.36
2023-02-22T08:17:25.774Z,5.40
2023-02-22T08:18:25.805Z,5.45
2023-02-22T08:19:25.731Z,5.49
2023-02-22T08:20:25.814Z,5.54
2023-02-22T08:21:25.714Z,5.53
2023-02-22T08:22:25.734Z,5.56
2023-02-22T08:23:25.776Z,5.57
2023-02-22T08:24:25.664Z,5.57
2023-02-22T08:25:25.658Z,5.53
2023-02-22T08:26:25.635Z,5.57
2023-02-22T08:27:25.729Z,5.53
2023-02-22T08:28:25.683Z,5.54
2023-02-22T08:29:25.603Z,5.57
2023-02-22T08:30:25.718Z,5.64
2023-02-22T08:31:25.641Z,5.68
2023-02-22T08:32:25.772Z,5.75
2023-02-22T08:33:25.770Z,5.75
2023-02-22T08:34:25.595Z,5.75
2023-02-22T08:35:25.540Z,5.81
2023-02-22T08:36:25.530Z,5.89
2023-02-22T08:37:25.512Z,6.00
2023-02-22T08:38:25.499Z,6.03
2023-02-22T08:39:25.473Z,6.09
2023-02-22T08:40:25.493Z,6.14
2023-02-22T08:41:25.454Z,6.17
2023-02-22T08:42:25.455Z,6.15
2023-02-22T08:43:25.434Z,6.18
2023-02-22T08:44:25.451Z,6.18
2023-02-22T08:45:25.442Z,6.14
2023-02-22T08:46:25.432Z,6.06
2023-02-22T08:47:25.474Z,6.06
2023-02-22T08:48:25.373Z,6.01
2023-02-22T08:49:25.410Z,6.00
2023-02-22T08:50:25.337Z,6.04
2023-02-22T08:51:27.662Z,6.09
2023-02-22T08:52:25.361Z,6.17
2023-02-22T08:53:25.308Z,6.19
2023-02-22T08:54:25.328Z,6.27
2023-02-22T08:55:25.321Z,6.31
2023-02-22T08:56:25.275Z,6.41
2023-02-22T08:57:25.273Z,6.41
2023-02-22T08:58:25.262Z,6.44
2023-02-22T08:59:25.239Z,6.48
2023-02-22T09:00:25.260Z,6.48
2023-02-22T09:01:32.943Z,6.48
2023-02-22T09:02:26.213Z,6.54
2023-02-22T09:03:25.241Z,6.55
2023-02-22T09:04:25.176Z,6.64
2023-02-22T09:05:25.162Z,6.58
2023-02-22T09:06:25.187Z,6.52
2023-02-22T09:07:25.128Z,6.56
2023-02-22T09:08:25.162Z,6.58
2023-02-22T09:09:25.158Z,6.62
2023-02-22T09:10:25.122Z,6.66
2023-02-22T09:11:25.099Z,6.70
2023-02-22T09:12:25.061Z,6.73
2023-02-22T09:13:25.053Z,6.84
2023-02-22T09:14:25.046Z,6.87
2023-02-22T09:15:25.046Z,6.97
2023-02-22T09:16:25.051Z,7.06
2023-02-22T09:17:25.014Z,7.13
2023-02-22T09:18:28.603Z,7.20
2023-02-22T09:19:25.997Z,7.25
2023-02-22T09:20:24.971Z,7.34
2023-02-22T09:21:24.979Z,7.46
2023-02-22T09:22:24.935Z,7.63
2023-02-22T09:23:24.949Z,7.68
2023-02-22T09:24:24.921Z,7.71
2023-02-22T09:25:24.933Z,7.72
2023-02-22T09:26:24.900Z,7.90
2023-02-22T09:27:25.858Z,8.01
2023-02-22T09:28:24.864Z,7.98
2023-02-22T09:29:24.856Z,7.97
2023-02-22T09:30:24.957Z,8.02
2023-02-22T09:31:24.999Z,8.16
2023-02-22T09:32:25.022Z,8.20
2023-02-22T09:33:24.888Z,8.38
2023-02-22T09:34:24.821Z,8.47
2023-02-22T09:35:24.828Z,8.52
2023-02-22T09:36:26.192Z,8.53
2023-02-22T09:37:24.857Z,8.47
2023-02-22T09:38:24.845Z,8.43
2023-02-22T09:39:24.879Z,8.43
2023-02-22T09:40:24.730Z,8.34
2023-02-22T09:41:24.739Z,8.40
2023-02-22T09:42:24.710Z,8.48
2023-02-22T09:43:24.769Z,8.50
2023-02-22T09:44:24.659Z,8.56
2023-02-22T09:45:24.656Z,8.66
2023-02-22T09:46:24.632Z,8.73
2023-02-22T09:47:24.655Z,8.77
2023-02-22T09:48:24.631Z,8.80
2023-02-22T09:49:24.629Z,8.80
2023-02-22T09:50:24.596Z,8.83
2023-02-22T09:51:24.592Z,8.86
2023-02-22T09:52:24.553Z,8.80
2023-02-22T09:53:26.379Z,8.89
2023-02-22T09:54:24.571Z,8.94
2023-02-22T09:55:24.534Z,8.96
2023-02-22T09:56:24.498Z,8.96
2023-02-22T09:57:24.496Z,9.01
2023-02-22T09:58:24.477Z,9.05
2023-02-22T09:59:24.476Z,9.15
2023-02-22T10:00:24.497Z,9.15
2023-02-22T10:01:24.446Z,9.15
2023-02-22T10:02:24.450Z,9.20
2023-02-22T10:03:24.460Z,9.26
2023-02-22T10:04:24.388Z,9.24
2023-02-22T10:05:24.385Z,9.31
2023-02-22T10:06:24.385Z,9.35
2023-02-22T10:07:33.042Z,9.42
2023-02-22T10:08:24.319Z,9.48
2023-02-22T10:09:32.994Z,9.57
2023-02-22T10:10:24.294Z,9.69
2023-02-22T10:11:24.282Z,9.68
2023-02-22T10:12:24.271Z,9.78
2023-02-22T10:13:24.316Z,9.86
2023-02-22T10:14:24.271Z,9.96
2023-02-22T10:15:24.237Z,10.02
2023-02-22T10:16:24.235Z,10.12
2023-02-22T10:17:24.209Z,10.23
2023-02-22T10:18:24.229Z,10.23
2023-02-22T10:19:24.202Z,10.23
2023-02-22T10:20:24.174Z,10.22
2023-02-22T10:21:24.167Z,10.27
2023-02-22T10:22:24.138Z,10.34
2023-02-22T10:23:24.137Z,10.44
2023-02-22T10:24:24.098Z,10.55
2023-02-22T10:25:24.154Z,10.64
2023-02-22T10:26:24.114Z,10.45
2023-02-22T10:27:24.065Z,10.51
2023-02-22T10:28:24.058Z,10.66
2023-02-22T10:29:24.111Z,10.73
2023-02-22T10:30:25.598Z,10.74
2023-02-22T10:31:24.127Z,10.82
2023-02-22T10:32:24.055Z,10.86
2023-02-22T10:33:24.016Z,10.94
2023-02-22T10:34:23.970Z,11.02
2023-02-22T10:35:23.977Z,11.02
2023-02-22T10:36:23.946Z,11.06
2023-02-22T10:37:23.971Z,11.07
2023-02-22T10:38:23.925Z,11.15
2023-02-22T10:39:23.949Z,11.19
2023-02-22T10:40:23.912Z,11.32
2023-02-22T10:41:23.879Z,11.40
2023-02-22T10:42:23.878Z,11.46
2023-02-22T10:43:23.869Z,11.58
2023-02-22T10:44:23.834Z,11.55
2023-02-22T10:45:23.845Z,11.54
2023-02-22T10:46:23.817Z,11.55
2023-02-22T10:47:23.778Z,11.58
2023-02-22T10:48:23.780Z,11.62
2023-02-22T10:49:23.769Z,11.64
2023-02-22T10:50:23.781Z,11.67
2023-02-22T10:51:23.764Z,11.80
2023-02-22T10:52:23.731Z,11.94
2023-02-22T10:53:23.700Z,12.05
2023-02-22T10:54:23.670Z,12.14
2023-02-22T10:55:23.658Z,12.23
2023-02-22T10:56:23.676Z,12.39
2023-02-22T10:57:23.645Z,12.60
2023-02-22T10:58:23.985Z,12.79
2023-02-22T10:59:25.604Z,13.08
2023-02-22T11:00:23.630Z,13.30
2023-02-22T11:01:23.664Z,13.39
2023-02-22T11:02:23.589Z,13.17
2023-02-22T11:03:23.633Z,12.92
2023-02-22T11:04:23.548Z,12.85
2023-02-22T11:05:23.528Z,12.87
2023-02-22T11:06:23.507Z,12.93
2023-02-22T11:07:23.509Z,13.05
2023-02-22T11:08:23.507Z,13.23
2023-02-22T11:09:23.474Z,13.32
2023-02-22T11:10:23.466Z,13.38
2023-02-22T11:11:23.469Z,13.36
2023-02-22T11:12:23.436Z,13.42
2023-02-22T11:13:23.447Z,13.44
2023-02-22T11:14:23.467Z,13.32
2023-02-22T11:15:23.425Z,13.51
2023-02-22T11:16:23.697Z,13.57
2023-02-22T11:17:23.376Z,13.62
2023-02-22T11:18:23.325Z,13.73
2023-02-22T11:19:23.474Z,13.70
2023-02-22T11:20:23.311Z,13.57
2023-02-22T11:21:23.299Z,13.51
2023-02-22T11:22:23.305Z,13.51
2023-02-22T11:23:23.321Z,13.52
2023-02-22T11:24:23.260Z,13.55
2023-02-22T11:25:23.239Z,13.57
2023-02-22T11:26:23.228Z,13.52
2023-02-22T11:27:23.233Z,13.60
2023-02-22T11:28:23.239Z,13.69
2023-02-22T11:29:23.198Z,14.02
2023-02-22T11:30:23.201Z,14.18
2023-02-22T11:31:23.271Z,14.29
2023-02-22T11:32:23.357Z,14.45
2023-02-22T11:33:23.153Z,14.58
2023-02-22T11:34:23.140Z,14.65
2023-02-22T11:35:23.111Z,14.77
2023-02-22T11:36:23.105Z,14.86
2023-02-22T11:37:23.079Z,14.88
2023-02-22T11:38:23.086Z,14.83
2023-02-22T11:39:23.120Z,14.91
2023-02-22T11:40:23.044Z,15.06
2023-02-22T11:41:23.070Z,15.14
2023-02-22T11:42:23.010Z,15.21
2023-02-22T11:43:23.014Z,15.23
2023-02-22T11:44:22.993Z,15.28
2023-02-22T11:45:23.004Z,15.31
2023-02-22T11:46:23.009Z,15.20
2023-02-22T11:47:22.937Z,15.23
2023-02-22T11:48:22.927Z,15.20
2023-02-22T11:49:22.969Z,15.28
2023-02-22T11:50:22.900Z,15.23
2023-02-22T11:51:22.896Z,15.23
2023-02-22T11:52:22.946Z,15.32
2023-02-22T11:53:22.869Z,15.43
2023-02-22T11:54:22.876Z,15.38
2023-02-22T11:55:36.482Z,15.49
2023-02-22T11:56:36.856Z,15.60
2023-02-22T11:57:23.820Z,15.60
2023-02-22T11:58:22.786Z,15.68
2023-02-22T11:59:22.814Z,15.74
2023-02-22T12:00:22.779Z,15.72
2023-02-22T12:01:22.742Z,15.71
2023-02-22T12:02:22.746Z,15.78
2023-02-22T12:03:22.799Z,15.92
2023-02-22T12:04:22.735Z,16.08
2023-02-22T12:05:22.687Z,16.23
2023-02-22T12:06:22.714Z,16.28
2023-02-22T12:07:22.706Z,16.27
2023-02-22T12:08:22.662Z,16.27
2023-02-22T12:09:22.650Z,16.15
2023-02-22T12:10:22.636Z,16.12
2023-02-22T12:11:22.629Z,16.27
2023-02-22T12:12:22.640Z,16.34
2023-02-22T12:13:22.575Z,16.41
2023-02-22T12:14:22.594Z,16.30
2023-02-22T12:15:22.551Z,16.21
2023-02-22T12:16:22.539Z,16.21
2023-02-22T12:17:22.567Z,16.20
2023-02-22T12:18:22.516Z,16.21
2023-02-22T12:19:22.494Z,16.25
2023-02-22T12:20:22.505Z,16.45
2023-02-22T12:21:22.489Z,16.52
2023-02-22T12:22:22.532Z,16.33
2023-02-22T12:23:22.463Z,16.17
2023-02-22T12:24:22.477Z,16.09
2023-02-22T12:25:22.412Z,16.12
2023-02-22T12:26:22.424Z,16.24
2023-02-22T12:27:22.409Z,16.11
2023-02-22T12:28:25.014Z,16.24
2023-02-22T12:29:22.376Z,16.27
2023-02-22T12:30:22.374Z,16.35
2023-02-22T12:31:22.453Z,16.42
2023-02-22T12:32:22.401Z,16.46
2023-02-22T12:33:22.309Z,16.49
2023-02-22T12:34:22.377Z,16.61
2023-02-22T12:35:22.285Z,16.78
2023-02-22T12:36:22.299Z,16.81
2023-02-22T12:37:22.278Z,16.91
2023-02-22T12:38:22.240Z,16.88
2023-02-22T12:39:22.238Z,16.86
2023-02-22T12:40:22.243Z,16.94
2023-02-22T12:41:22.236Z,17.03
2023-02-22T12:42:22.244Z,17.00
2023-02-22T12:43:22.167Z,16.93
2023-02-22T12:44:22.175Z,16.94
2023-02-22T12:45:22.187Z,16.81
2023-02-22T12:46:22.165Z,16.76
2023-02-22T12:47:22.148Z,16.68
2023-02-22T12:48:22.162Z,16.71
2023-02-22T12:49:22.126Z,16.58
2023-02-22T12:50:22.126Z,16.56
2023-02-22T12:51:22.112Z,16.61
2023-02-22T12:52:22.408Z,16.61
2023-02-22T12:53:22.049Z,16.58
2023-02-22T12:54:22.083Z,16.63
2023-02-22T12:55:22.036Z,16.49
2023-02-22T12:56:22.040Z,16.30
2023-02-22T12:57:22.011Z,16.31
2023-02-22T12:58:21.969Z,16.34
2023-02-22T12:59:21.972Z,16.33
2023-02-22T13:00:21.967Z,16.38
2023-02-22T13:01:22.140Z,16.38
2023-02-22T13:02:21.922Z,16.42
2023-02-22T13:03:21.912Z,16.53
2023-02-22T13:04:21.913Z,16.60
2023-02-22T13:05:21.906Z,16.64
2023-02-22T13:06:21.908Z,16.70
2023-02-22T13:07:21.887Z,16.73
2023-02-22T13:08:21.849Z,16.76
2023-02-22T13:09:21.829Z,16.75
2023-02-22T13:10:21.822Z,16.78
2023-02-22T13:11:21.838Z,16.76
2023-02-22T13:12:21.780Z,16.73